Bradford, Canada
Current Conditions -  °F | °C
As of 4:11 AM on Thursday 23 Oct 2014 (Local Time) from CYBN Reporting Station
Few Clouds Few Clouds  
Wind Chill: 30°   Ceiling: Unl
Heat Index: 30°   Visibility: 9mi
Dew Point: 30°   Wind: 0mph
Humidity: 100%   Direction: NA
Pressure: 30.21"   Gusts: NA
Location:  44.12°N, 79.57°W
Report Text: CYBN 230811Z AUTO 00000KT 9SM FEW001 M01/M01 A3021
Loading
Personal Weather Stations






























Interactive Weather Map
Tropical Storm Tracking
New forecast layout! Learn more

10-Day Weather Forecast

Advertisements
Track Severe Weather on mobile